Terminal Aerodrome Forecast
Issued by NWS

Home | Current Version | Previous Version | Text Only | Print | Product List | Glossary On
Versions: 1 2 3 4 5 6 7 8 9 10 11 12 13
048
FTUS46 KMTR 101135
TAFOAK
TAF
KOAK 101135Z 1012/1118 20013KT P6SM -SHRA FEW008 BKN012 OVC030
     FM101500 20015KT 5SM -RA BR BKN008 OVC015
     FM102200 22006KT 5SM -RA BR OVC008
     FM110100 23005KT P6SM -SHRA BKN010 OVC018
     FM110300 25004KT P6SM VCSH SCT010 BKN020 OVC030
     FM110600 30004KT P6SM SCT015 BKN028 OVC040
     FM111500 VRB03KT P6SM FEW020 SCT040 SCT080=

USA.gov is the U.S. government's official web portal to all federal, state and local government web resources and services.